Time;durP1;ratioP1;P1;durP2;ratioP2;P2;SDS_P1;SDS_P2;PMS_P1;PMS_P2;Temp;Humidity;BMP_temperature;BMP_pressure;BME280_temperature;BME280_humidity;BME280_pressure;Samples;Min_cycle;Max_cycle;Signal;HPM_P1;HPM_P2
2023/03/16 00:01:10;;;;;;;0.68;0.60;;;;;;;3.24;67.51;94122.31;5106316;28;20106;-74
2023/03/16 00:03:36;;;;;;;0.88;0.80;;;;;;;3.20;67.36;94117.69;5108255;28;20024;-75
2023/03/16 00:06:01;;;;;;;1.27;0.80;;;;;;;3.15;67.56;94122.81;5106737;28;20031;-74
2023/03/16 00:08:26;;;;;;;1.00;0.60;;;;;;;3.01;67.80;94125.72;5107508;28;20028;-75
2023/03/16 00:10:52;;;;;;;0.68;0.68;;;;;;;2.97;67.89;94123.03;5108056;28;20043;-75
2023/03/16 00:13:22;;;;;;;0.80;0.60;;;;;;;2.97;68.02;94130.44;5107505;28;20108;-74
2023/03/16 00:15:58;;;;;;;0.70;0.70;;;;;;;2.95;68.42;94138.97;5106371;28;20490;-74
2023/03/16 00:18:28;;;;;;;0.85;0.70;;;;;;;3.00;68.21;94121.47;5105897;28;20020;-75
2023/03/16 00:20:57;;;;;;;1.23;0.95;;;;;;;3.04;68.07;94133.03;5108078;28;20108;-75
2023/03/16 00:23:28;;;;;;;1.02;0.88;;;;;;;2.96;67.94;94131.59;5105976;28;20807;-76
2023/03/16 00:25:57;;;;;;;1.65;0.60;;;;;;;2.88;68.01;94131.69;5106158;28;20032;-74
2023/03/16 00:28:23;;;;;;;1.48;0.80;;;;;;;2.90;68.11;94134.00;5105927;28;20080;-75
2023/03/16 00:30:49;;;;;;;2.47;0.85;;;;;;;2.92;67.63;94131.63;5106033;28;20102;-73
2023/03/16 00:33:14;;;;;;;1.67;0.90;;;;;;;2.90;67.70;94128.56;5107446;28;20080;-74
2023/03/16 00:35:49;;;;;;;1.00;0.90;;;;;;;2.87;68.05;94140.25;5106679;28;20028;-74
2023/03/16 00:38:18;;;;;;;1.17;0.90;;;;;;;2.82;68.16;94138.00;5107534;28;20160;-74
2023/03/16 00:40:44;;;;;;;2.38;0.88;;;;;;;2.82;68.16;94146.91;5107265;28;20033;-74
2023/03/16 00:43:09;;;;;;;1.15;0.90;;;;;;;2.87;68.03;94142.97;5105328;28;20047;-74
2023/03/16 00:45:35;;;;;;;1.75;1.17;;;;;;;2.85;68.31;94151.50;5105554;28;20035;-74
2023/03/16 00:48:01;;;;;;;3.00;1.38;;;;;;;2.87;68.39;94146.47;5105591;28;20027;-76
2023/03/16 00:50:27;;;;;;;1.10;0.98;;;;;;;2.86;68.23;94157.69;5105438;28;20015;-75
2023/03/16 00:52:53;;;;;;;1.30;0.90;;;;;;;2.91;67.88;94151.81;5105277;28;20023;-73
2023/03/16 00:55:21;;;;;;;1.30;0.90;;;;;;;3.02;67.81;94147.03;5105821;28;20046;-74
2023/03/16 00:57:47;;;;;;;1.10;1.00;;;;;;;3.09;67.65;94163.22;5106921;28;20026;-74
2023/03/16 01:00:15;;;;;;;1.02;0.82;;;;;;;3.09;67.42;94151.59;5106907;28;20401;-74
2023/03/16 01:02:44;;;;;;;0.65;0.65;;;;;;;3.12;67.27;94146.13;5107191;28;20055;-74
2023/03/16 01:05:11;;;;;;;1.45;0.90;;;;;;;3.20;66.85;94152.25;5106538;27;20101;-74
2023/03/16 01:07:37;;;;;;;1.60;1.40;;;;;;;3.08;66.90;94150.06;5105088;28;20540;-74
2023/03/16 01:10:04;;;;;;;1.13;0.98;;;;;;;3.04;66.72;94154.75;5087949;28;20031;-73
2023/03/16 01:12:30;;;;;;;1.02;0.82;;;;;;;3.02;66.70;94162.56;5105324;28;20462;-75
2023/03/16 01:14:55;;;;;;;0.77;0.73;;;;;;;3.02;66.59;94154.41;5104928;28;20053;-74
2023/03/16 01:17:23;;;;;;;1.00;0.70;;;;;;;3.00;66.77;94160.25;5105372;28;20035;-75
2023/03/16 01:19:50;;;;;;;1.27;1.08;;;;;;;2.91;66.59;94159.97;5105390;28;20114;-75
2023/03/16 01:22:16;;;;;;;1.05;0.70;;;;;;;2.91;66.67;94165.41;5106957;28;20112;-76
2023/03/16 01:24:45;;;;;;;0.70;0.70;;;;;;;2.84;66.47;94152.69;5107370;28;20408;-75
2023/03/16 01:27:12;;;;;;;0.70;0.70;;;;;;;2.81;67.01;94164.38;5104892;28;20055;-75
2023/03/16 01:29:38;;;;;;;0.60;0.60;;;;;;;2.80;66.64;94156.63;5104869;28;20057;-76
2023/03/16 01:32:04;;;;;;;0.70;0.57;;;;;;;2.71;66.23;94159.81;5104645;28;20486;-75
2023/03/16 01:34:30;;;;;;;0.68;0.57;;;;;;;2.65;66.46;94156.03;5106190;28;20106;-75
2023/03/16 01:36:56;;;;;;;0.85;0.50;;;;;;;2.56;66.45;94156.50;5104615;28;20435;-74
2023/03/16 01:39:22;;;;;;;0.43;0.40;;;;;;;2.49;66.24;94155.81;5104456;28;20036;-74
2023/03/16 01:41:47;;;;;;;0.95;0.50;;;;;;;2.37;66.45;94174.13;5105937;28;20554;-74
2023/03/16 01:44:15;;;;;;;0.30;0.30;;;;;;;2.38;66.43;94174.91;5105707;28;20129;-74
2023/03/16 01:46:43;;;;;;;0.40;0.40;;;;;;;2.35;67.06;94179.19;5105616;28;20307;-74
2023/03/16 01:49:24;;;;;;;0.80;0.70;;;;;;;2.26;67.24;94176.16;5104069;28;20023;-74
2023/03/16 01:51:57;;;;;;;0.80;0.63;;;;;;;2.26;67.78;94183.53;5104648;28;20031;-74
2023/03/16 01:54:25;;;;;;;1.92;0.88;;;;;;;2.22;68.24;94178.13;5104841;28;20126;-74
2023/03/16 01:57:15;;;;;;;0.30;0.30;;;;;;;2.15;68.38;94183.63;5104015;28;20111;-74
2023/03/16 01:59:44;;;;;;;0.55;0.45;;;;;;;1.92;68.69;94178.00;5104409;28;20110;-74
2023/03/16 02:02:13;;;;;;;0.40;0.40;;;;;;;1.93;69.47;94187.69;5104662;28;20024;-73
2023/03/16 02:05:16;;;;;;;0.80;0.60;;;;;;;1.99;69.50;94188.78;5105029;28;20545;-74
2023/03/16 02:07:50;;;;;;;0.52;0.43;;;;;;;1.93;69.90;94198.53;5103658;28;20032;-75
2023/03/16 02:10:18;;;;;;;4.00;1.25;;;;;;;1.86;70.49;94199.34;5103683;28;20115;-75
2023/03/16 02:12:43;;;;;;;3.35;1.27;;;;;;;1.88;70.89;94193.53;5103854;28;20023;-75
2023/03/16 02:15:10;;;;;;;1.60;0.98;;;;;;;1.87;70.99;94203.59;5103997;28;20046;-75
2023/03/16 02:17:36;;;;;;;0.82;0.73;;;;;;;1.90;71.01;94196.63;5104328;28;20042;-74
2023/03/16 02:20:12;;;;;;;0.88;0.68;;;;;;;1.89;71.20;94206.69;5103748;28;20028;-74
2023/03/16 02:22:42;;;;;;;1.15;0.90;;;;;;;1.88;71.40;94207.06;5087055;28;20032;-74
2023/03/16 02:25:07;;;;;;;0.73;0.70;;;;;;;1.86;71.67;94215.63;5104097;28;20133;-75
2023/03/16 02:27:44;;;;;;;0.88;0.73;;;;;;;1.89;71.72;94219.47;5086572;28;20027;-75
2023/03/16 02:30:18;;;;;;;0.65;0.65;;;;;;;1.81;71.58;94213.31;5103981;28;20031;-75
2023/03/16 02:32:45;;;;;;;3.10;0.82;;;;;;;1.78;72.01;94220.31;5104906;28;20773;-75
2023/03/16 02:35:11;;;;;;;0.70;0.70;;;;;;;1.79;71.95;94221.88;5087180;28;20108;-75
2023/03/16 02:37:37;;;;;;;2.08;0.70;;;;;;;1.91;72.18;94227.97;5105398;28;20020;-75
2023/03/16 02:40:22;;;;;;;0.77;0.70;;;;;;;1.91;71.39;94231.47;5103344;28;20031;-75
2023/03/16 02:43:03;;;;;;;1.48;0.82;;;;;;;1.89;72.22;94233.78;5103131;28;20119;-74
2023/03/16 02:45:50;;;;;;;1.13;0.85;;;;;;;1.92;71.68;94230.28;5103344;28;20023;-75
2023/03/16 02:48:21;;;;;;;0.40;0.40;;;;;;;1.98;72.16;94225.22;5103453;28;20458;-74
2023/03/16 02:50:48;;;;;;;1.05;0.70;;;;;;;2.08;71.66;94232.50;5086559;28;20396;-75
2023/03/16 02:53:14;;;;;;;1.20;0.60;;;;;;;2.13;70.86;94229.38;5103341;28;20031;-75
2023/03/16 02:55:39;;;;;;;0.75;0.68;;;;;;;2.00;70.72;94228.28;5103587;28;20502;-75
2023/03/16 02:58:05;;;;;;;2.08;0.70;;;;;;;1.95;70.93;94232.22;5103086;28;20034;-75
2023/03/16 03:00:31;;;;;;;1.95;0.75;;;;;;;1.94;71.22;94240.72;5105005;28;20032;-75
2023/03/16 03:02:57;;;;;;;0.98;0.60;;;;;;;1.89;70.84;94238.44;5102876;28;20114;-75
2023/03/16 03:05:22;;;;;;;2.28;0.82;;;;;;;1.84;70.86;94236.94;5103518;28;20063;-74
2023/03/16 03:07:48;;;;;;;1.23;0.70;;;;;;;1.84;70.97;94232.28;5103331;28;20051;-75
2023/03/16 03:10:13;;;;;;;0.50;0.50;;;;;;;1.87;71.35;94241.53;5103048;28;20039;-75
2023/03/16 03:12:38;;;;;;;0.73;0.60;;;;;;;1.79;70.92;94243.53;5104331;28;20058;-75
2023/03/16 03:15:04;;;;;;;0.95;0.60;;;;;;;1.73;70.92;94255.97;5102754;28;20027;-75
2023/03/16 03:17:30;;;;;;;0.45;0.40;;;;;;;1.73;71.36;94247.06;5104530;28;20034;-74
2023/03/16 03:20:01;;;;;;;0.60;0.60;;;;;;;1.76;71.07;94255.16;5102751;28;20516;-74
2023/03/16 03:22:26;;;;;;;0.65;0.32;;;;;;;1.76;70.66;94266.00;5103526;28;20040;-74
2023/03/16 03:24:52;;;;;;;0.47;0.45;;;;;;;1.78;70.59;94255.56;5085817;28;20355;-75
2023/03/16 03:27:21;;;;;;;0.60;0.52;;;;;;;1.80;70.46;94260.56;5102796;28;20490;-74
2023/03/16 03:29:46;;;;;;;0.60;0.60;;;;;;;1.78;70.38;94271.03;5103357;28;20106;-73
2023/03/16 03:32:12;;;;;;;0.50;0.40;;;;;;;1.64;70.21;94254.84;5102555;28;20106;-74
2023/03/16 03:34:37;;;;;;;0.50;0.35;;;;;;;1.50;70.43;94258.44;5104671;28;20024;-76
2023/03/16 03:37:03;;;;;;;0.70;0.40;;;;;;;1.45;70.75;94269.66;5085477;28;20118;-74
2023/03/16 03:39:28;;;;;;;0.47;0.40;;;;;;;1.39;71.24;94265.81;5103204;28;20092;-75
2023/03/16 03:41:53;;;;;;;0.32;0.22;;;;;;;1.34;71.15;94261.59;5102714;28;20119;-75
2023/03/16 03:44:20;;;;;;;0.45;0.35;;;;;;;1.33;71.20;94266.22;5102938;28;20023;-74
2023/03/16 03:46:46;;;;;;;0.95;0.50;;;;;;;1.37;71.01;94276.25;5103158;28;20024;-75
2023/03/16 03:49:12;;;;;;;0.43;0.40;;;;;;;1.35;70.68;94268.53;5102481;28;20023;-74
2023/03/16 03:51:37;;;;;;;0.80;0.30;;;;;;;1.36;71.02;94285.56;5104599;28;20039;-74
2023/03/16 03:54:02;;;;;;;0.73;0.50;;;;;;;1.38;71.19;94280.50;5103941;28;20020;-75
2023/03/16 03:56:28;;;;;;;0.70;0.50;;;;;;;1.45;70.72;94288.63;5104341;28;20035;-75
2023/03/16 03:58:53;;;;;;;0.70;0.45;;;;;;;1.44;69.80;94298.69;5102625;28;20069;-75
2023/03/16 04:01:19;;;;;;;0.70;0.45;;;;;;;1.47;69.89;94292.47;5104410;28;20079;-75
2023/03/16 04:03:45;;;;;;;0.88;0.50;;;;;;;1.47;69.47;94299.84;5104297;28;20024;-75
2023/03/16 04:06:10;;;;;;;0.40;0.40;;;;;;;1.43;69.67;94296.34;5103085;28;20747;-75
2023/03/16 04:08:36;;;;;;;0.43;0.43;;;;;;;1.44;69.20;94311.47;5103192;28;20429;-74
2023/03/16 04:11:01;;;;;;;0.38;0.32;;;;;;;1.44;69.38;94306.06;5103999;28;20466;-75
2023/03/16 04:13:26;;;;;;;0.88;0.43;;;;;;;1.46;69.07;94304.47;5102708;28;20058;-74
2023/03/16 04:16:02;;;;;;;1.00;0.50;;;;;;;1.54;69.22;94300.56;5085660;28;20031;-75
2023/03/16 04:18:29;;;;;;;0.50;0.40;;;;;;;1.50;68.28;94307.19;5102724;28;20485;-74
2023/03/16 04:20:54;;;;;;;0.52;0.52;;;;;;;1.50;68.98;94307.97;5102654;28;20032;-75
2023/03/16 04:23:21;;;;;;;0.40;0.40;;;;;;;1.48;69.07;94309.50;5103139;28;20020;-74
2023/03/16 04:25:46;;;;;;;0.90;0.55;;;;;;;1.54;68.79;94305.22;5106588;28;20085;-74
2023/03/16 04:28:12;;;;;;;0.68;0.45;;;;;;;1.59;68.65;94318.34;5107164;28;20444;-74
2023/03/16 04:30:38;;;;;;;0.40;0.40;;;;;;;1.59;68.51;94310.22;5106678;28;20646;-75
2023/03/16 04:33:03;;;;;;;0.50;0.40;;;;;;;1.66;68.34;94322.97;5089253;28;20035;-75
2023/03/16 04:35:29;;;;;;;0.40;0.38;;;;;;;1.61;68.32;94324.16;5106028;28;20431;-75
2023/03/16 04:37:54;;;;;;;0.63;0.43;;;;;;;1.56;69.11;94322.63;5106074;28;20023;-76
2023/03/16 04:40:20;;;;;;;0.98;0.47;;;;;;;1.47;69.36;94335.03;5108900;28;20031;-76
2023/03/16 04:42:46;;;;;;;0.40;0.40;;;;;;;1.59;69.42;94343.50;5107906;28;20047;-76
2023/03/16 04:45:13;;;;;;;0.60;0.50;;;;;;;1.61;69.42;94343.13;5106108;28;20020;-74
2023/03/16 04:47:38;;;;;;;3.88;0.60;;;;;;;1.65;69.34;94341.16;5106412;28;20038;-74
2023/03/16 04:50:05;;;;;;;0.60;0.47;;;;;;;1.56;68.88;94330.75;5106150;28;20020;-74
2023/03/16 04:52:31;;;;;;;0.73;0.57;;;;;;;1.39;69.16;94339.72;5089133;28;20783;-75
2023/03/16 04:54:56;;;;;;;1.13;0.50;;;;;;;1.33;69.63;94347.47;5107478;28;20114;-75
2023/03/16 04:57:22;;;;;;;2.08;0.88;;;;;;;1.28;70.13;94360.66;5107135;28;20421;-74
2023/03/16 04:59:47;;;;;;;1.15;0.60;;;;;;;1.22;70.07;94351.38;5105528;28;20328;-75
2023/03/16 05:02:13;;;;;;;0.65;0.50;;;;;;;1.24;70.14;94357.16;5105994;28;20592;-74
2023/03/16 05:04:38;;;;;;;1.50;0.90;;;;;;;1.27;70.88;94362.59;5107254;28;20485;-74
2023/03/16 05:07:04;;;;;;;0.98;0.55;;;;;;;1.23;70.24;94361.81;5088470;28;20019;-74
2023/03/16 05:09:29;;;;;;;0.70;0.50;;;;;;;1.20;70.35;94359.09;5107065;27;20032;-75
2023/03/16 05:11:55;;;;;;;0.85;0.60;;;;;;;1.14;70.78;94364.16;5105507;28;20031;-75
2023/03/16 05:14:20;;;;;;;1.83;1.00;;;;;;;1.12;70.63;94363.00;5088167;28;20031;-75
2023/03/16 05:16:46;;;;;;;1.77;1.00;;;;;;;1.05;70.64;94369.22;5106729;28;20034;-74
2023/03/16 05:19:11;;;;;;;1.05;0.60;;;;;;;1.12;70.70;94369.19;5105627;28;20035;-75
2023/03/16 05:21:37;;;;;;;1.02;0.70;;;;;;;1.04;70.42;94378.50;5106392;28;20032;-74
2023/03/16 05:24:04;;;;;;;0.85;0.60;;;;;;;1.12;70.63;94377.31;5105300;28;20026;-74
2023/03/16 05:26:30;;;;;;;0.68;0.50;;;;;;;1.05;70.20;94386.22;5105210;28;20028;-75
2023/03/16 05:28:57;;;;;;;0.47;0.40;;;;;;;1.02;70.62;94386.97;5105054;28;20080;-76
2023/03/16 05:31:22;;;;;;;0.77;0.60;;;;;;;0.95;70.93;94378.09;5106509;28;20026;-76
2023/03/16 05:33:48;;;;;;;1.20;0.93;;;;;;;1.13;71.25;94397.81;5104702;28;20035;-74
2023/03/16 05:36:13;;;;;;;1.05;0.80;;;;;;;1.24;70.68;94398.56;5104284;28;20035;-74
2023/03/16 05:38:39;;;;;;;2.05;1.23;;;;;;;1.24;70.78;94387.72;5104808;28;20064;-75
2023/03/16 05:41:04;;;;;;;1.25;0.80;;;;;;;1.26;70.82;94404.38;5106577;28;20039;-75
2023/03/16 05:43:30;;;;;;;1.70;0.80;;;;;;;1.29;71.69;94403.56;5105909;28;20180;-75
2023/03/16 05:45:56;;;;;;;1.50;1.05;;;;;;;1.35;70.63;94398.53;5106527;28;20028;-75
2023/03/16 05:48:24;;;;;;;1.98;1.00;;;;;;;1.42;70.71;94420.19;5106329;27;20419;-74
2023/03/16 05:50:51;;;;;;;1.13;0.70;;;;;;;1.41;70.30;94418.66;5106336;28;20055;-74
2023/03/16 05:53:16;;;;;;;1.90;1.25;;;;;;;1.47;70.38;94413.59;5087959;28;20106;-73
2023/03/16 05:55:42;;;;;;;1.52;0.77;;;;;;;1.44;69.79;94417.88;5105588;28;20080;-73
2023/03/16 05:58:07;;;;;;;1.35;0.60;;;;;;;1.49;70.03;94424.81;5104914;28;20025;-75
2023/03/16 06:00:33;;;;;;;2.17;0.93;;;;;;;1.53;70.22;94420.94;5104378;28;20023;-74
2023/03/16 06:02:58;;;;;;;0.88;0.80;;;;;;;1.52;69.79;94424.81;5104579;28;20026;-75
2023/03/16 06:05:24;;;;;;;3.03;0.98;;;;;;;1.59;69.50;94426.72;5104704;28;20050;-74
2023/03/16 06:07:51;;;;;;;2.85;1.30;;;;;;;1.68;69.53;94437.94;5103879;28;20110;-74
2023/03/16 06:10:16;;;;;;;1.50;0.90;;;;;;;1.72;69.27;94430.56;5087638;28;20501;-74
2023/03/16 06:12:42;;;;;;;3.88;1.00;;;;;;;1.76;69.44;94439.44;5104014;28;20023;-77
2023/03/16 06:15:09;;;;;;;1.17;0.90;;;;;;;1.80;68.88;94436.75;5104409;28;20421;-74
2023/03/16 06:17:35;;;;;;;3.78;0.93;;;;;;;1.72;68.57;94438.72;5105445;28;20027;-74
2023/03/16 06:20:01;;;;;;;1.33;0.90;;;;;;;1.76;68.54;94441.38;5105960;28;20024;-74
2023/03/16 06:22:26;;;;;;;3.30;1.10;;;;;;;1.82;68.73;94447.94;5087148;28;20476;-74
2023/03/16 06:24:52;;;;;;;1.77;1.17;;;;;;;1.81;68.23;94455.31;5103083;28;20458;-75
2023/03/16 06:27:19;;;;;;;0.80;0.70;;;;;;;1.78;68.21;94453.41;5102220;28;20046;-77
2023/03/16 06:29:45;;;;;;;0.68;0.55;;;;;;;1.73;68.14;94461.94;5101529;28;20019;-74
2023/03/16 06:32:11;;;;;;;1.38;1.05;;;;;;;1.71;67.99;94453.41;5104539;28;20039;-76
2023/03/16 06:34:36;;;;;;;1.35;0.70;;;;;;;1.73;67.81;94464.63;5103058;28;20171;-74
2023/03/16 06:37:02;;;;;;;1.77;1.13;;;;;;;1.75;67.99;94470.44;5103927;27;20578;-74
2023/03/16 06:39:28;;;;;;;0.82;0.70;;;;;;;1.78;68.08;94468.88;5100658;28;20027;-73
2023/03/16 06:41:53;;;;;;;2.13;1.25;;;;;;;1.83;67.87;94474.66;5102419;28;20043;-73
2023/03/16 06:44:20;;;;;;;0.85;0.82;;;;;;;1.82;68.03;94473.13;5101399;27;20027;-74
2023/03/16 06:46:45;;;;;;;2.45;0.80;;;;;;;1.80;67.77;94478.16;5102826;28;20027;-74
2023/03/16 06:49:11;;;;;;;0.98;0.80;;;;;;;1.83;68.14;94490.91;5083638;28;20580;-75
2023/03/16 06:51:36;;;;;;;1.38;0.95;;;;;;;1.69;68.22;94482.06;5080356;28;20109;-74
2023/03/16 06:54:02;;;;;;;1.50;1.00;;;;;;;1.83;68.33;94487.44;5102583;28;20418;-73
2023/03/16 06:56:27;;;;;;;4.82;1.15;;;;;;;1.89;68.68;94501.38;5099694;28;20057;-74
2023/03/16 06:58:53;;;;;;;3.13;2.30;;;;;;;1.94;68.85;94501.75;5101609;28;20119;-75
2023/03/16 07:01:18;;;;;;;2.08;1.42;;;;;;;1.97;68.71;94508.31;5102851;28;20398;-74
2023/03/16 07:03:43;;;;;;;1.83;1.10;;;;;;;1.97;68.95;94502.91;5102262;28;20130;-74
2023/03/16 07:06:09;;;;;;;1.70;1.05;;;;;;;1.86;68.93;94508.34;5102802;28;20055;-75
2023/03/16 07:08:34;;;;;;;2.53;1.25;;;;;;;1.80;69.52;94516.09;5101447;28;20031;-73
2023/03/16 07:11:00;;;;;;;1.33;1.00;;;;;;;1.86;70.01;94511.84;5102450;28;20114;-76
2023/03/16 07:13:25;;;;;;;2.38;1.33;;;;;;;1.94;69.68;94518.00;5103885;28;20027;-76
2023/03/16 07:15:51;;;;;;;2.03;1.52;;;;;;;2.02;69.36;94516.06;5103096;28;20035;-74
2023/03/16 07:18:17;;;;;;;1.92;1.30;;;;;;;2.02;68.68;94521.50;5100117;28;20066;-73
2023/03/16 07:20:43;;;;;;;1.63;1.42;;;;;;;2.10;68.63;94525.72;5103380;28;20035;-74
2023/03/16 07:23:08;;;;;;;3.85;1.40;;;;;;;2.13;68.04;94522.22;5103010;28;20068;-74
2023/03/16 07:25:33;;;;;;;2.05;1.08;;;;;;;2.10;67.82;94523.78;5101707;28;20074;-74
2023/03/16 07:27:59;;;;;;;2.13;1.30;;;;;;;2.12;67.76;94526.09;5101780;28;20458;-73
2023/03/16 07:30:24;;;;;;;2.63;1.60;;;;;;;2.18;67.86;94534.59;5099402;28;20059;-75
2023/03/16 07:32:50;;;;;;;1.60;1.00;;;;;;;2.12;66.84;94524.16;5101613;28;20024;-75
2023/03/16 07:35:16;;;;;;;1.70;1.25;;;;;;;2.16;66.69;94526.84;5085800;28;20067;-74
2023/03/16 07:37:42;;;;;;;3.83;1.63;;;;;;;2.27;66.40;94534.97;5103351;28;20058;-74
2023/03/16 07:40:08;;;;;;;1.05;0.73;;;;;;;2.31;66.03;94533.78;5086089;28;20057;-74
2023/03/16 07:42:34;;;;;;;1.52;1.02;;;;;;;2.30;65.15;94542.31;5102361;28;20089;-74
2023/03/16 07:45:00;;;;;;;1.95;1.05;;;;;;;2.34;65.59;94538.41;5104296;28;20019;-73
2023/03/16 07:47:25;;;;;;;0.90;0.60;;;;;;;2.30;65.21;94529.53;5104191;28;20039;-73
2023/03/16 07:49:51;;;;;;;0.80;0.57;;;;;;;2.18;64.65;94532.69;5104238;28;20031;-73
2023/03/16 07:52:17;;;;;;;1.83;1.10;;;;;;;2.26;65.28;94550.47;5102827;28;20417;-73
2023/03/16 07:54:42;;;;;;;2.15;1.50;;;;;;;2.20;65.03;94549.31;5103498;28;20020;-73
2023/03/16 07:57:08;;;;;;;4.88;1.70;;;;;;;2.24;65.52;94547.38;5102527;28;20027;-74
2023/03/16 07:59:33;;;;;;;2.17;1.15;;;;;;;2.25;65.82;94546.22;5105614;28;20023;-74
2023/03/16 08:01:59;;;;;;;2.25;1.30;;;;;;;2.26;65.22;94541.56;5108155;28;20027;-73
2023/03/16 08:04:24;;;;;;;3.55;1.20;;;;;;;2.29;65.90;94549.66;5108087;28;20227;-73
2023/03/16 08:06:52;;;;;;;3.58;1.30;;;;;;;2.36;65.90;94549.66;5106848;28;20089;-73
2023/03/16 08:09:17;;;;;;;1.02;0.80;;;;;;;2.47;65.56;94554.28;5106626;28;20486;-73
2023/03/16 08:11:43;;;;;;;0.80;0.70;;;;;;;2.47;64.88;94546.91;5106781;28;20036;-74
2023/03/16 08:14:08;;;;;;;1.63;0.70;;;;;;;2.49;64.34;94557.34;5106443;28;20051;-73
2023/03/16 08:16:34;;;;;;;1.17;0.73;;;;;;;2.55;64.78;94551.13;5109467;28;20110;-74
2023/03/16 08:19:00;;;;;;;1.20;0.77;;;;;;;2.59;64.61;94548.41;5109140;28;20077;-74
2023/03/16 08:21:27;;;;;;;1.77;0.88;;;;;;;2.66;64.21;94557.28;5109648;28;20030;-74
2023/03/16 08:23:52;;;;;;;0.88;0.70;;;;;;;2.74;63.85;94559.94;5108148;28;20020;-73
2023/03/16 08:26:19;;;;;;;0.80;0.70;;;;;;;2.86;63.48;94568.41;5107576;28;20073;-74
2023/03/16 08:28:46;;;;;;;2.10;1.17;;;;;;;2.91;63.52;94568.00;5106311;28;20088;-73
2023/03/16 08:31:13;;;;;;;0.77;0.70;;;;;;;3.02;62.72;94575.31;5106116;28;20027;-72
2023/03/16 08:33:39;;;;;;;1.58;1.13;;;;;;;2.89;61.94;94567.63;5106539;28;20019;-74
2023/03/16 08:36:10;;;;;;;1.30;0.80;;;;;;;2.82;61.24;94573.09;5088976;28;20566;-74
2023/03/16 08:38:36;;;;;;;2.50;1.00;;;;;;;2.82;62.46;94577.78;5106400;28;20034;-73
2023/03/16 08:41:01;;;;;;;1.55;1.05;;;;;;;2.88;62.81;94563.38;5089156;28;20031;-74
2023/03/16 08:43:27;;;;;;;1.40;0.85;;;;;;;3.00;62.20;94580.38;5107285;28;20048;-73
2023/03/16 08:45:52;;;;;;;1.67;1.10;;;;;;;2.87;61.70;94567.28;5107611;28;20020;-73
2023/03/16 08:48:19;;;;;;;2.45;0.95;;;;;;;3.01;61.99;94585.41;5107056;28;20500;-74
2023/03/16 08:50:44;;;;;;;2.30;1.00;;;;;;;3.07;62.05;94586.53;5106063;28;20498;-74
2023/03/16 08:53:12;;;;;;;2.15;1.42;;;;;;;2.99;61.52;94582.34;5105480;28;20110;-73
2023/03/16 08:55:40;;;;;;;1.90;1.10;;;;;;;2.98;61.61;94588.13;5105967;28;20501;-73
2023/03/16 08:58:06;;;;;;;2.83;1.15;;;;;;;2.97;60.94;94581.16;5107421;28;20023;-74
2023/03/16 09:00:32;;;;;;;2.33;1.35;;;;;;;3.04;60.87;94592.00;5105765;28;20493;-73
2023/03/16 09:02:57;;;;;;;1.98;1.33;;;;;;;2.97;60.96;94590.09;5105968;28;20027;-74
2023/03/16 09:05:23;;;;;;;3.53;1.25;;;;;;;2.98;61.27;94580.00;5106645;28;20139;-74
2023/03/16 09:07:48;;;;;;;0.68;0.60;;;;;;;3.04;61.01;94583.84;5088525;28;20024;-73
2023/03/16 09:10:14;;;;;;;1.60;0.77;;;;;;;3.07;61.29;94591.22;5105346;28;20020;-73
2023/03/16 09:12:41;;;;;;;3.05;1.33;;;;;;;3.13;61.38;94597.75;5105833;28;20456;-73
2023/03/16 09:15:09;;;;;;;5.13;1.60;;;;;;;3.06;61.47;94592.38;5105155;28;20028;-73
2023/03/16 09:17:35;;;;;;;1.95;1.10;;;;;;;3.16;61.25;94600.47;5107053;28;20031;-73
2023/03/16 09:20:01;;;;;;;3.85;2.13;;;;;;;3.25;61.56;94608.16;5105776;28;20027;-73
2023/03/16 09:22:27;;;;;;;4.25;2.30;;;;;;;3.34;61.77;94602.31;5088342;28;21370;-74
2023/03/16 09:24:53;;;;;;;2.35;1.35;;;;;;;3.41;61.11;94603.03;5106844;28;20115;-74
2023/03/16 09:27:19;;;;;;;2.42;1.50;;;;;;;3.33;60.45;94606.19;5106614;27;20112;-74
2023/03/16 09:29:45;;;;;;;2.53;1.20;;;;;;;3.11;60.24;94592.75;5106726;28;20524;-74
2023/03/16 09:32:11;;;;;;;2.70;1.30;;;;;;;3.26;60.78;94596.13;5106088;28;20020;-74
2023/03/16 09:34:36;;;;;;;1.80;1.13;;;;;;;3.29;60.70;94598.06;5105489;28;20082;-74
2023/03/16 09:37:02;;;;;;;4.25;1.60;;;;;;;3.36;60.87;94605.38;5105122;28;20035;-73
2023/03/16 09:39:28;;;;;;;2.38;1.30;;;;;;;3.35;61.00;94607.34;5106364;28;20130;-74
2023/03/16 09:42:08;;;;;;;1.60;1.33;;;;;;;3.31;60.71;94611.25;5105150;28;20047;-74
2023/03/16 09:45:04;;;;;;;1.70;1.10;;;;;;;3.27;60.80;94614.00;5104449;28;20119;-74
2023/03/16 09:47:32;;;;;;;1.88;1.40;;;;;;;3.21;61.34;94607.41;5106534;28;20031;-74
2023/03/16 09:50:00;;;;;;;2.30;1.35;;;;;;;3.18;61.48;94619.09;5104969;28;20035;-73
2023/03/16 09:52:34;;;;;;;3.33;1.77;;;;;;;3.18;62.28;94624.50;5107874;28;20537;-74
2023/03/16 09:55:06;;;;;;;2.88;1.88;;;;;;;3.23;62.69;94623.34;5089875;28;20031;-72
2023/03/16 09:57:39;;;;;;;2.78;1.90;;;;;;;3.22;61.65;94617.13;5105772;28;20088;-73
2023/03/16 10:00:20;;;;;;;3.25;2.05;;;;;;;3.36;61.99;94619.75;5104780;28;20562;-72
2023/03/16 10:03:07;;;;;;;2.85;2.10;;;;;;;3.45;61.40;94620.09;5104321;28;20027;-75
2023/03/16 10:05:32;;;;;;;2.50;1.60;;;;;;;3.49;60.83;94619.28;5105536;28;20020;-72
2023/03/16 10:08:09;;;;;;;2.75;1.65;;;;;;;3.53;60.43;94615.38;5104585;28;20028;-73
2023/03/16 10:10:48;;;;;;;4.55;1.60;;;;;;;3.43;59.23;94622.41;5104382;28;20032;-76
2023/03/16 10:13:22;;;;;;;2.95;1.83;;;;;;;3.26;59.56;94604.28;5104346;28;20032;-75
2023/03/16 10:15:48;;;;;;;3.42;1.95;;;;;;;3.39;59.94;94610.03;5105641;28;20032;-74
2023/03/16 10:18:26;;;;;;;3.70;1.50;;;;;;;3.31;59.61;94625.59;5104258;28;20490;-73
2023/03/16 10:20:54;;;;;;;2.25;1.73;;;;;;;3.38;59.69;94609.28;5104371;28;20020;-73
2023/03/16 10:23:23;;;;;;;2.75;1.40;;;;;;;3.32;59.00;94621.69;5105433;28;20020;-73
2023/03/16 10:25:54;;;;;;;2.70;1.80;;;;;;;3.28;59.50;94614.75;5104260;28;20527;-74
2023/03/16 10:28:25;;;;;;;2.47;1.65;;;;;;;3.27;60.08;94616.72;5105026;28;20031;-76
2023/03/16 10:30:52;;;;;;;3.10;1.58;;;;;;;3.26;60.00;94622.53;5104223;28;20037;-76
2023/03/16 10:33:27;;;;;;;3.03;2.17;;;;;;;3.33;60.11;94617.84;5086858;28;20112;-77
2023/03/16 10:36:01;;;;;;;1.88;1.42;;;;;;;3.24;59.59;94614.00;5103749;28;20027;-74
2023/03/16 10:38:32;;;;;;;2.47;1.75;;;;;;;3.20;59.99;94619.44;5103580;28;20035;-75
2023/03/16 10:40:58;;;;;;;2.38;1.70;;;;;;;3.18;60.48;94616.38;5103893;28;20053;-75
2023/03/16 10:43:24;;;;;;;1.88;1.52;;;;;;;3.16;60.27;94602.41;5103455;28;20450;-77
2023/03/16 10:45:50;;;;;;;2.95;2.20;;;;;;;3.38;61.00;94612.00;5086509;28;20126;-75
2023/03/16 10:48:18;;;;;;;2.00;1.60;;;;;;;3.37;59.63;94604.97;5103826;28;20092;-75
2023/03/16 10:50:49;;;;;;;2.38;1.60;;;;;;;3.36;59.45;94611.59;5105059;28;20034;-75
2023/03/16 10:53:19;;;;;;;2.72;1.90;;;;;;;3.44;59.64;94609.59;5086532;28;20054;-77
2023/03/16 10:55:46;;;;;;;3.53;1.67;;;;;;;3.49;59.55;94622.75;5103428;28;20024;-75
2023/03/16 10:58:24;;;;;;;3.00;1.80;;;;;;;3.64;59.26;94615.28;5103508;28;20019;-75
2023/03/16 11:00:50;;;;;;;2.42;2.00;;;;;;;3.63;58.39;94619.97;5086879;28;20038;-72
2023/03/16 11:03:28;;;;;;;2.70;1.90;;;;;;;3.55;58.49;94625.84;5103354;28;20034;-73
2023/03/16 11:06:05;;;;;;;3.70;2.05;;;;;;;3.45;58.72;94627.47;5103380;28;20027;-73
2023/03/16 11:08:40;;;;;;;3.40;2.03;;;;;;;3.46;58.78;94623.56;5103424;28;20108;-74
2023/03/16 11:11:35;;;;;;;4.63;2.30;;;;;;;3.39;59.29;94627.13;5086450;28;20087;-74
2023/03/16 11:14:03;;;;;;;4.00;2.13;;;;;;;3.45;59.21;94622.81;5045194;28;20043;-74
2023/03/16 11:17:11;;;;;;;3.67;2.65;;;;;;;3.43;59.20;94622.41;5045037;28;20074;-74
2023/03/16 11:19:40;;;;;;;4.07;2.75;;;;;;;3.52;59.39;94624.69;5051226;28;20574;-74
2023/03/16 11:22:35;;;;;;;2.55;1.90;;;;;;;3.52;58.77;94624.69;5061743;28;20029;-74
2023/03/16 11:25:25;;;;;;;3.95;2.40;;;;;;;3.52;58.55;94623.94;4985703;28;20038;-74
2023/03/16 11:27:56;;;;;;;4.28;2.22;;;;;;;3.55;58.72;94625.84;4985722;28;20569;-74
2023/03/16 11:30:51;;;;;;;2.90;2.00;;;;;;;3.56;58.70;94621.97;5002039;28;20041;-73
2023/03/16 11:33:16;;;;;;;3.30;2.50;;;;;;;3.59;58.10;94607.56;4975094;28;20096;-74
2023/03/16 11:36:11;;;;;;;4.18;2.53;;;;;;;3.78;58.50;94623.31;4989473;28;20054;-73
2023/03/16 11:38:49;;;;;;;3.10;2.42;;;;;;;3.76;58.15;94628.41;5009748;28;20052;-74
2023/03/16 11:41:50;;;;;;;4.70;3.08;;;;;;;3.73;58.36;94623.78;4993986;28;20090;-74
2023/03/16 11:44:32;;;;;;;2.33;2.08;;;;;;;3.72;57.81;94617.53;4967176;28;20058;-75
2023/03/16 11:47:16;;;;;;;3.45;2.55;;;;;;;3.68;58.37;94619.53;4989644;28;20435;-73